createdAt,value
2018-08-07T00:00:20.840Z,84.70
2018-08-07T00:02:51.043Z,86.20
2018-08-07T00:05:20.265Z,87.00
2018-08-07T00:07:51.017Z,87.90
2018-08-07T00:10:22.121Z,86.50
2018-08-07T00:12:51.276Z,87.60
2018-08-07T00:15:28.244Z,88.30
2018-08-07T00:17:57.485Z,87.20
2018-08-07T00:20:27.616Z,88.70
2018-08-07T00:22:56.613Z,89.60
2018-08-07T00:25:25.654Z,89.80
2018-08-07T00:27:55.767Z,88.50
2018-08-07T00:30:24.740Z,89.80
2018-08-07T00:32:53.736Z,89.30
2018-08-07T00:35:22.750Z,89.70
2018-08-07T00:37:51.845Z,90.50
2018-08-07T00:40:20.792Z,90.50
2018-08-07T00:42:49.973Z,91.10
2018-08-07T00:45:20.089Z,91.20
2018-08-07T00:52:49.488Z,90.80
2018-08-07T00:55:20.099Z,91.30
2018-08-07T00:57:49.695Z,91.50
2018-08-07T01:00:18.885Z,90.90
2018-08-07T01:02:48.101Z,91.00
2018-08-07T01:05:17.957Z,91.10
2018-08-07T01:07:46.956Z,91.90
2018-08-07T01:12:46.603Z,92.80
2018-08-07T01:15:18.031Z,92.40
2018-08-07T01:17:47.301Z,92.60
2018-08-07T01:20:20.489Z,92.60
2018-08-07T01:22:49.458Z,93.10
2018-08-07T01:25:20.498Z,92.90
2018-08-07T01:27:49.710Z,93.00
2018-08-07T01:30:23.536Z,93.30
2018-08-07T01:32:52.883Z,93.00
2018-08-07T01:35:22.238Z,92.80
2018-08-07T01:40:19.907Z,93.10
2018-08-07T01:42:50.032Z,93.60
2018-08-07T01:45:19.381Z,93.50
2018-08-07T01:47:48.599Z,93.70
2018-08-07T01:50:17.725Z,94.20
2018-08-07T01:52:46.745Z,94.20
2018-08-07T01:55:20.896Z,94.10
2018-08-07T01:57:49.967Z,94.10
2018-08-07T02:00:19.576Z,94.20
2018-08-07T02:02:49.017Z,94.00
2018-08-07T02:05:18.032Z,94.80
2018-08-07T02:07:47.050Z,94.50
2018-08-07T02:10:18.761Z,94.40
2018-08-07T02:12:47.883Z,95.10
2018-08-07T02:15:17.147Z,94.60
2018-08-07T02:17:46.345Z,95.00
2018-08-07T02:20:16.236Z,95.40
2018-08-07T02:22:45.963Z,95.20
2018-08-07T02:27:46.516Z,94.60
2018-08-07T02:30:16.445Z,95.20
2018-08-07T02:35:15.231Z,95.60
2018-08-07T02:37:45.225Z,96.10
2018-08-07T02:40:14.941Z,96.10
2018-08-07T02:42:44.143Z,96.20
2018-08-07T02:45:15.454Z,96.30
2018-08-07T02:47:46.026Z,96.40
2018-08-07T02:50:17.032Z,96.20
2018-08-07T02:52:46.214Z,96.90
2018-08-07T02:55:15.209Z,96.60
2018-08-07T02:57:44.763Z,96.50
2018-08-07T03:00:17.117Z,96.60
2018-08-07T03:02:46.560Z,96.20
2018-08-07T03:05:15.917Z,96.50
2018-08-07T03:07:44.920Z,96.60
2018-08-07T03:10:13.873Z,96.60
2018-08-07T03:12:43.027Z,97.10
2018-08-07T03:15:15.336Z,96.80
2018-08-07T03:17:45.445Z,96.20
2018-08-07T03:20:14.392Z,97.20
2018-08-07T03:22:43.360Z,97.70
2018-08-07T03:25:13.363Z,97.40
2018-08-07T03:27:43.383Z,97.60
2018-08-07T03:30:14.316Z,96.80
2018-08-07T03:32:45.339Z,97.50
2018-08-07T03:35:14.481Z,98.00
2018-08-07T03:37:43.468Z,98.50
2018-08-07T03:40:14.495Z,98.70
2018-08-07T03:42:43.637Z,98.70
2018-08-07T03:45:14.037Z,97.90
2018-08-07T03:47:43.735Z,98.50
2018-08-07T03:50:12.693Z,98.30
2018-08-07T03:52:41.848Z,98.70
2018-08-07T03:55:13.037Z,98.00
2018-08-07T03:57:42.543Z,98.10
2018-08-07T04:00:17.021Z,98.10
2018-08-07T04:05:15.054Z,98.60
2018-08-07T04:07:44.178Z,98.60
2018-08-07T04:10:14.378Z,97.50
2018-08-07T04:12:43.339Z,98.30
2018-08-07T04:15:13.904Z,98.60
2018-08-07T04:17:43.415Z,98.40
2018-08-07T04:20:13.930Z,99.10
2018-08-07T04:22:42.914Z,98.70
2018-08-07T04:25:11.874Z,99.20
2018-08-07T04:27:41.094Z,99.50
2018-08-07T04:30:12.572Z,98.90
2018-08-07T04:32:41.840Z,98.10
2018-08-07T04:35:11.266Z,99.10
2018-08-07T04:37:40.257Z,98.60
2018-08-07T04:40:10.850Z,99.40
2018-08-07T04:42:40.482Z,99.80
2018-08-07T04:47:39.620Z,98.60
2018-08-07T04:50:09.509Z,99.20
2018-08-07T04:55:08.717Z,98.50
2018-08-07T04:57:37.796Z,98.10
2018-08-07T05:00:10.101Z,98.30
2018-08-07T05:02:39.209Z,97.30
2018-08-07T05:05:08.702Z,96.90
2018-08-07T05:07:37.732Z,96.00
2018-08-07T05:10:09.962Z,95.40
2018-08-07T05:12:38.957Z,95.10
2018-08-07T05:15:09.125Z,94.60
2018-08-07T05:17:38.425Z,94.30
2018-08-07T05:20:07.647Z,93.90
2018-08-07T05:22:38.752Z,93.90
2018-08-07T05:25:08.891Z,93.40
2018-08-07T05:27:38.281Z,92.70
2018-08-07T05:30:09.175Z,92.80
2018-08-07T05:32:38.156Z,92.70
2018-08-07T05:35:08.866Z,92.40
2018-08-07T05:37:37.877Z,93.00
2018-08-07T05:42:36.982Z,92.00
2018-08-07T05:45:07.598Z,92.60
2018-08-07T05:47:36.682Z,91.90
2018-08-07T05:50:10.262Z,91.50
2018-08-07T05:52:44.281Z,91.10
2018-08-07T05:55:15.419Z,91.20
2018-08-07T05:57:44.424Z,90.30
2018-08-07T06:00:17.012Z,90.40
2018-08-07T06:02:46.826Z,89.70
2018-08-07T06:05:15.929Z,89.40
2018-08-07T06:07:45.219Z,88.50
2018-08-07T06:10:14.633Z,90.00
2018-08-07T06:12:43.816Z,87.50
2018-08-07T06:15:14.703Z,83.70
2018-08-07T06:17:44.758Z,81.70
2018-08-07T06:20:13.882Z,81.00
2018-08-07T06:22:43.026Z,77.50
2018-08-07T06:25:12.034Z,77.70
2018-08-07T06:30:12.774Z,77.80
2018-08-07T06:32:41.916Z,71.50
2018-08-07T06:37:39.684Z,70.50
2018-08-07T06:40:10.259Z,68.90
2018-08-07T06:42:39.288Z,69.10
2018-08-07T06:45:09.375Z,66.40
2018-08-07T06:47:38.364Z,65.80
2018-08-07T06:50:11.413Z,63.60
2018-08-07T06:52:40.516Z,62.70
2018-08-07T06:55:10.280Z,60.40
2018-08-07T06:57:39.408Z,58.60
2018-08-07T07:00:14.313Z,58.80
2018-08-07T07:02:43.572Z,58.90
2018-08-07T07:07:41.634Z,58.20
2018-08-07T07:10:12.059Z,56.20
2018-08-07T07:12:42.135Z,56.90
2018-08-07T07:15:12.449Z,55.20
2018-08-07T07:17:42.413Z,55.10
2018-08-07T07:20:13.191Z,54.80
2018-08-07T07:22:43.245Z,55.20
2018-08-07T07:25:12.438Z,53.30
2018-08-07T07:27:41.797Z,52.00
2018-08-07T07:30:19.687Z,52.00
2018-08-07T07:32:50.238Z,52.50
2018-08-07T07:35:19.624Z,52.20
2018-08-07T07:37:49.436Z,50.20
2018-08-07T07:40:18.406Z,50.40
2018-08-07T07:42:47.617Z,49.60
2018-08-07T07:45:17.982Z,47.80
2018-08-07T07:47:47.031Z,47.00
2018-08-07T07:50:18.293Z,45.30
2018-08-07T07:52:47.350Z,45.20
2018-08-07T07:55:17.359Z,45.00
2018-08-07T07:57:46.729Z,45.70
2018-08-07T08:00:18.955Z,45.40
2018-08-07T08:02:48.409Z,43.40
2018-08-07T08:05:17.424Z,44.00
2018-08-07T08:07:46.420Z,42.70
2018-08-07T08:10:15.457Z,43.00
2018-08-07T08:12:44.458Z,41.50
2018-08-07T08:15:15.577Z,41.00
2018-08-07T08:17:45.797Z,40.70
2018-08-07T08:20:20.200Z,40.60
2018-08-07T08:22:50.108Z,39.70
2018-08-07T08:25:19.267Z,40.00
2018-08-07T08:27:48.423Z,38.80
2018-08-07T08:30:17.816Z,38.40
2018-08-07T08:32:48.070Z,38.30
2018-08-07T08:35:18.317Z,40.10
2018-08-07T08:37:47.773Z,37.90
2018-08-07T08:40:19.621Z,39.00
2018-08-07T08:42:48.789Z,39.30
2018-08-07T08:45:19.350Z,37.70
2018-08-07T08:47:56.774Z,38.40
2018-08-07T08:50:25.852Z,37.50
2018-08-07T08:52:54.862Z,36.00
2018-08-07T08:55:23.803Z,35.60
2018-08-07T08:57:52.849Z,35.80
2018-08-07T09:00:24.218Z,36.30
2018-08-07T09:02:54.257Z,35.70
2018-08-07T09:05:23.386Z,36.50
2018-08-07T09:07:52.481Z,37.10
2018-08-07T09:10:25.641Z,37.40
2018-08-07T09:12:55.205Z,36.20
2018-08-07T09:15:24.324Z,36.90
2018-08-07T09:17:53.413Z,35.80
2018-08-07T09:20:25.550Z,35.30
2018-08-07T09:22:55.024Z,36.10
2018-08-07T09:25:25.026Z,34.90
2018-08-07T09:27:54.318Z,33.80
2018-08-07T09:30:24.633Z,34.60
2018-08-07T09:32:54.415Z,34.10
2018-08-07T09:35:24.035Z,34.30
2018-08-07T09:37:53.616Z,32.50
2018-08-07T09:40:23.174Z,32.20
2018-08-07T09:42:53.686Z,31.90
2018-08-07T09:45:28.334Z,32.20
2018-08-07T09:47:57.982Z,32.00
2018-08-07T09:50:26.991Z,31.50
2018-08-07T09:52:56.119Z,31.00
2018-08-07T09:55:25.109Z,32.00
2018-08-07T09:57:54.091Z,32.10
2018-08-07T10:00:28.743Z,31.50
2018-08-07T10:03:29.569Z,31.10
2018-08-07T10:05:58.554Z,30.90
2018-08-07T10:08:27.640Z,30.90
2018-08-07T10:10:56.729Z,30.90
2018-08-07T10:13:25.861Z,30.50
2018-08-07T10:15:54.868Z,29.90
2018-08-07T10:18:23.949Z,30.20
2018-08-07T10:23:21.838Z,28.20
2018-08-07T10:28:20.129Z,28.00
2018-08-07T10:30:49.110Z,28.20
2018-08-07T10:33:18.169Z,27.90
2018-08-07T10:35:47.246Z,27.70
2018-08-07T10:40:45.065Z,29.20
2018-08-07T10:43:14.150Z,27.80
2018-08-07T10:45:43.015Z,28.50
2018-08-07T10:48:12.126Z,28.60
2018-08-07T10:50:41.105Z,27.70
2018-08-07T10:53:10.253Z,27.50
2018-08-07T10:55:39.666Z,28.80
2018-08-07T10:58:08.940Z,27.40
2018-08-07T11:00:38.819Z,29.30
2018-08-07T11:03:08.621Z,28.10
2018-08-07T11:05:37.585Z,27.60
2018-08-07T11:08:06.500Z,27.60
2018-08-07T11:10:35.720Z,28.10
2018-08-07T11:13:05.035Z,27.50
2018-08-07T11:15:35.092Z,26.30
2018-08-07T11:18:04.401Z,27.20
2018-08-07T11:20:33.681Z,27.10
2018-08-07T11:23:03.292Z,28.00
2018-08-07T11:25:32.898Z,26.90
2018-08-07T11:28:02.207Z,26.00
2018-08-07T11:30:31.584Z,26.00
2018-08-07T11:33:01.710Z,25.70
2018-08-07T11:35:30.699Z,25.60
2018-08-07T11:38:00.979Z,25.50
2018-08-07T11:40:30.011Z,26.10
2018-08-07T11:43:00.139Z,26.20
2018-08-07T11:45:31.153Z,26.10
2018-08-07T11:48:00.250Z,26.20
2018-08-07T11:50:30.845Z,26.30
2018-08-07T11:52:59.898Z,26.90
2018-08-07T11:55:29.005Z,27.40
2018-08-07T11:57:58.082Z,27.40
2018-08-07T12:07:54.953Z,26.70
2018-08-07T12:10:24.051Z,26.10
2018-08-07T12:12:53.583Z,26.50
2018-08-07T12:15:23.940Z,26.30
2018-08-07T12:20:21.757Z,26.10
2018-08-07T12:22:51.846Z,26.10
2018-08-07T12:25:21.158Z,26.00
2018-08-07T12:27:50.328Z,25.60
2018-08-07T12:30:23.483Z,26.40
2018-08-07T12:35:21.198Z,25.80
2018-08-07T12:37:50.508Z,26.70
2018-08-07T12:40:22.496Z,26.90
2018-08-07T12:42:52.629Z,25.00
2018-08-07T12:45:21.597Z,25.20
2018-08-07T12:47:51.194Z,25.10
2018-08-07T12:50:20.269Z,25.50
2018-08-07T12:52:50.278Z,25.40
2018-08-07T12:55:21.542Z,25.40
2018-08-07T12:57:50.889Z,25.30
2018-08-07T13:00:21.721Z,25.20
2018-08-07T13:02:50.781Z,25.70
2018-08-07T13:05:19.854Z,25.10
2018-08-07T13:07:48.792Z,25.70
2018-08-07T13:10:19.006Z,26.00
2018-08-07T13:12:49.037Z,26.00
2018-08-07T13:15:19.832Z,25.00
2018-08-07T13:17:49.354Z,25.10
2018-08-07T13:20:18.403Z,25.10
2018-08-07T13:22:47.852Z,25.20
2018-08-07T13:25:19.183Z,25.20
2018-08-07T13:27:48.330Z,25.60
2018-08-07T13:30:20.248Z,25.40
2018-08-07T13:32:49.416Z,24.60
2018-08-07T13:35:18.752Z,25.30
2018-08-07T13:37:48.749Z,25.70
2018-08-07T13:40:18.978Z,24.70
2018-08-07T13:42:48.182Z,25.30
2018-08-07T13:45:19.852Z,25.80
2018-08-07T13:50:20.150Z,25.10
2018-08-07T13:52:50.033Z,25.00
2018-08-07T13:55:19.859Z,25.20
2018-08-07T13:57:49.061Z,25.50
2018-08-07T14:00:22.689Z,25.40
2018-08-07T14:02:52.461Z,24.80
2018-08-07T14:05:22.191Z,24.50
2018-08-07T14:07:52.256Z,24.90
2018-08-07T14:10:22.464Z,24.50
2018-08-07T14:15:22.588Z,24.50
2018-08-07T14:17:51.849Z,24.30
2018-08-07T14:20:20.983Z,23.90
2018-08-07T14:22:50.316Z,25.60
2018-08-07T14:25:21.954Z,23.50
2018-08-07T14:27:51.084Z,23.20
2018-08-07T14:30:22.127Z,22.90
2018-08-07T14:35:20.499Z,23.30
2018-08-07T14:37:50.009Z,24.30
2018-08-07T14:40:22.916Z,23.30
2018-08-07T14:42:52.478Z,23.80
2018-08-07T14:45:23.937Z,24.30
2018-08-07T14:47:53.851Z,23.50
2018-08-07T14:50:24.897Z,24.90
2018-08-07T14:52:54.357Z,24.30
2018-08-07T14:55:23.343Z,24.30
2018-08-07T14:57:52.861Z,24.40
2018-08-07T15:00:24.207Z,24.50
2018-08-07T15:02:53.294Z,24.70
2018-08-07T15:05:22.271Z,24.80
2018-08-07T15:07:51.267Z,24.70
2018-08-07T15:10:22.639Z,24.80
2018-08-07T15:12:51.946Z,25.10
2018-08-07T15:15:25.803Z,25.70
2018-08-07T15:17:55.058Z,26.00
2018-08-07T15:20:26.208Z,25.20
2018-08-07T15:22:56.400Z,25.70
2018-08-07T15:27:54.423Z,26.70
2018-08-07T15:30:25.093Z,25.90
2018-08-07T15:32:54.621Z,25.30
2018-08-07T15:35:25.450Z,25.20
2018-08-07T15:37:55.594Z,25.20
2018-08-07T15:40:25.713Z,26.90
2018-08-07T15:42:55.010Z,26.30
2018-08-07T15:45:24.992Z,25.80
2018-08-07T15:47:54.281Z,26.80
2018-08-07T15:50:23.274Z,28.00
2018-08-07T15:52:53.606Z,28.20
2018-08-07T15:57:52.370Z,27.40
2018-08-07T16:00:25.815Z,28.30
2018-08-07T16:02:55.293Z,28.00
2018-08-07T16:05:24.330Z,27.40
2018-08-07T16:07:54.137Z,27.30
2018-08-07T16:10:23.492Z,27.80
2018-08-07T16:12:53.622Z,28.40
2018-08-07T16:15:22.751Z,27.80
2018-08-07T16:17:52.565Z,27.80
2018-08-07T16:20:22.330Z,28.70
2018-08-07T16:22:51.287Z,29.70
2018-08-07T16:25:20.893Z,29.20
2018-08-07T16:27:50.399Z,28.20
2018-08-07T16:30:24.200Z,29.20
2018-08-07T16:32:53.141Z,27.60
2018-08-07T16:35:22.205Z,29.70
2018-08-07T16:37:51.251Z,29.30
2018-08-07T16:40:22.241Z,29.30
2018-08-07T16:45:21.328Z,29.80
2018-08-07T16:47:50.601Z,28.90
2018-08-07T16:50:22.153Z,30.60
2018-08-07T16:52:52.390Z,30.20
2018-08-07T16:55:22.284Z,29.00
2018-08-07T16:57:51.451Z,29.50
2018-08-07T17:00:20.652Z,29.90
2018-08-07T17:02:50.125Z,30.30
2018-08-07T17:05:19.699Z,29.00
2018-08-07T17:07:49.495Z,29.60
2018-08-07T17:10:22.314Z,29.80
2018-08-07T17:12:51.647Z,30.20
2018-08-07T17:15:20.893Z,29.60
2018-08-07T17:17:50.318Z,31.30
2018-08-07T17:22:50.416Z,30.40
2018-08-07T17:25:20.812Z,30.30
2018-08-07T17:30:21.602Z,29.40
2018-08-07T17:32:51.992Z,31.40
2018-08-07T17:35:24.413Z,31.10
2018-08-07T17:37:56.346Z,31.70
2018-08-07T17:40:26.879Z,30.60
2018-08-07T17:42:56.215Z,34.90
2018-08-07T17:45:26.286Z,31.60
2018-08-07T17:47:55.442Z,31.80
2018-08-07T17:50:25.637Z,32.00
2018-08-07T17:53:00.129Z,33.90
2018-08-07T17:55:34.162Z,34.00
2018-08-07T17:58:03.261Z,32.80
2018-08-07T18:00:32.612Z,34.10
2018-08-07T18:03:01.680Z,35.30
2018-08-07T18:07:59.994Z,36.70
2018-08-07T18:10:29.120Z,37.30
2018-08-07T18:12:58.525Z,39.10
2018-08-07T18:15:27.627Z,37.40
2018-08-07T18:17:56.719Z,36.20
2018-08-07T18:20:27.058Z,35.00
2018-08-07T18:22:56.010Z,34.30
2018-08-07T18:25:25.001Z,36.10
2018-08-07T18:27:53.999Z,34.60
2018-08-07T18:30:25.025Z,34.50
2018-08-07T18:32:54.045Z,35.00
2018-08-07T18:37:53.298Z,37.40
2018-08-07T18:40:22.456Z,38.50
2018-08-07T18:42:51.426Z,38.80
2018-08-07T18:45:20.531Z,39.40
2018-08-07T18:47:49.667Z,40.10
2018-08-07T18:50:20.081Z,40.40
2018-08-07T18:52:49.264Z,41.40
2018-08-07T18:55:18.411Z,40.70
2018-08-07T18:57:48.730Z,40.90
2018-08-07T19:00:20.350Z,42.80
2018-08-07T19:02:52.855Z,44.30
2018-08-07T19:05:23.193Z,43.00
2018-08-07T19:07:52.158Z,43.20
2018-08-07T19:10:21.281Z,45.50
2018-08-07T19:12:50.532Z,45.40
2018-08-07T19:15:20.305Z,46.00
2018-08-07T19:17:49.746Z,46.40
2018-08-07T19:20:20.293Z,47.30
2018-08-07T19:22:49.688Z,48.40
2018-08-07T19:25:19.309Z,48.20
2018-08-07T19:27:48.965Z,48.10
2018-08-07T19:32:48.904Z,49.40
2018-08-07T19:35:18.286Z,49.80
2018-08-07T19:40:17.691Z,50.80
2018-08-07T19:42:47.784Z,51.10
2018-08-07T19:45:17.064Z,51.00
2018-08-07T19:47:47.402Z,51.40
2018-08-07T19:50:18.173Z,52.20
2018-08-07T19:52:47.717Z,51.70
2018-08-07T19:55:18.868Z,52.40
2018-08-07T19:57:48.034Z,52.10
2018-08-07T20:00:21.595Z,52.70
2018-08-07T20:02:51.233Z,53.30
2018-08-07T20:05:21.054Z,53.60
2018-08-07T20:07:50.608Z,54.20
2018-08-07T20:10:20.225Z,54.50
2018-08-07T20:12:49.396Z,54.50
2018-08-07T20:15:21.753Z,55.50
2018-08-07T20:17:51.334Z,55.10
2018-08-07T20:20:20.911Z,55.00
2018-08-07T20:22:51.241Z,55.20
2018-08-07T20:25:20.985Z,55.60
2018-08-07T20:27:49.955Z,56.10
2018-08-07T20:30:20.702Z,56.40
2018-08-07T20:32:51.402Z,56.50
2018-08-07T20:35:20.758Z,57.40
2018-08-07T20:37:49.746Z,57.90
2018-08-07T20:40:20.805Z,58.10
2018-08-07T20:42:50.518Z,57.70
2018-08-07T20:45:20.454Z,58.30
2018-08-07T20:47:49.525Z,58.60
2018-08-07T20:50:21.922Z,58.20
2018-08-07T20:52:51.503Z,58.20
2018-08-07T20:55:20.596Z,57.70
2018-08-07T20:57:49.677Z,57.70
2018-08-07T21:00:22.346Z,58.00
2018-08-07T21:02:51.785Z,56.80
2018-08-07T21:05:21.069Z,57.00
2018-08-07T21:07:50.054Z,57.60
2018-08-07T21:10:23.606Z,58.00
2018-08-07T21:12:52.773Z,57.60
2018-08-07T21:15:21.759Z,56.90
2018-08-07T21:17:50.793Z,57.40
2018-08-07T21:20:21.901Z,56.20
2018-08-07T21:25:21.546Z,54.90
2018-08-07T21:27:53.506Z,54.80
2018-08-07T21:30:24.956Z,54.60
2018-08-07T21:32:53.890Z,54.40
2018-08-07T21:35:22.977Z,54.40
2018-08-07T21:37:52.094Z,54.20
2018-08-07T21:40:22.115Z,54.40
2018-08-07T21:42:52.585Z,54.10
2018-08-07T21:45:21.620Z,54.20
2018-08-07T21:47:50.817Z,54.00
2018-08-07T21:50:22.177Z,53.90
2018-08-07T21:52:51.117Z,53.70
2018-08-07T21:55:20.744Z,53.60
2018-08-07T21:57:49.845Z,53.60
2018-08-07T22:00:28.803Z,53.50
2018-08-07T22:02:57.809Z,53.50
2018-08-07T22:05:26.839Z,53.60
2018-08-07T22:07:55.814Z,53.50
2018-08-07T22:10:24.823Z,53.50
2018-08-07T22:12:53.833Z,53.60
2018-08-07T22:15:22.814Z,53.60
2018-08-07T22:17:51.840Z,53.80
2018-08-07T22:20:20.826Z,53.80
2018-08-07T22:22:49.953Z,53.70
2018-08-07T22:25:18.913Z,53.90
2018-08-07T22:27:48.207Z,53.60
2018-08-07T22:30:19.145Z,53.60
2018-08-07T22:32:48.481Z,53.10
2018-08-07T22:35:17.618Z,52.90
2018-08-07T22:37:46.781Z,52.90
2018-08-07T22:40:16.317Z,52.30
2018-08-07T22:42:45.427Z,52.00
2018-08-07T22:45:15.955Z,51.90
2018-08-07T22:47:44.860Z,51.70
2018-08-07T22:50:15.162Z,51.70
2018-08-07T22:53:13.701Z,51.60
2018-08-07T22:55:42.697Z,51.70
2018-08-07T22:58:11.721Z,52.00
2018-08-07T23:00:40.701Z,52.10
2018-08-07T23:03:09.709Z,52.30
2018-08-07T23:05:39.175Z,52.60
2018-08-07T23:08:08.205Z,52.90
2018-08-07T23:10:37.213Z,53.00
2018-08-07T23:13:06.868Z,53.40
2018-08-07T23:15:35.940Z,53.70
2018-08-07T23:18:05.428Z,54.30
2018-08-07T23:20:34.434Z,54.70
2018-08-07T23:23:03.630Z,55.00
2018-08-07T23:25:32.731Z,55.70
2018-08-07T23:28:02.049Z,56.80
2018-08-07T23:30:31.018Z,57.30
2018-08-07T23:32:59.953Z,58.50
2018-08-07T23:35:29.085Z,59.10
2018-08-07T23:37:58.065Z,58.90
2018-08-07T23:40:27.119Z,59.60
2018-08-07T23:42:56.131Z,60.00
2018-08-07T23:45:25.151Z,60.40
2018-08-07T23:47:54.297Z,61.90
2018-08-07T23:50:23.277Z,63.70
2018-08-07T23:52:52.270Z,64.10
2018-08-07T23:55:21.275Z,63.70
2018-08-07T23:57:50.329Z,63.20
